createdAt,value
2023-03-24T00:01:18.314Z,46.97
2023-03-24T00:04:21.575Z,47.29
2023-03-24T00:07:25.326Z,47.31
2023-03-24T00:10:30.463Z,47.17
2023-03-24T00:13:38.369Z,47.07
2023-03-24T00:16:43.188Z,47.06
2023-03-24T00:19:47.603Z,47.37
2023-03-24T00:22:57.033Z,47.77
2023-03-24T00:26:02.703Z,47.53
2023-03-24T00:29:06.104Z,47.34
2023-03-24T00:32:08.419Z,47.21
2023-03-24T00:35:12.810Z,46.56
2023-03-24T00:38:14.356Z,46.11
2023-03-24T00:41:19.921Z,46.36
2023-03-24T00:44:21.871Z,46.61
2023-03-24T00:47:26.104Z,46.79
2023-03-24T00:50:27.823Z,47.10
2023-03-24T00:53:30.030Z,47.11
2023-03-24T00:56:33.772Z,47.25
2023-03-24T00:59:42.417Z,47.36
2023-03-24T01:02:46.462Z,46.99
2023-03-24T01:05:48.655Z,46.94
2023-03-24T01:08:53.780Z,47.14
2023-03-24T01:11:56.132Z,47.22
2023-03-24T01:15:00.046Z,47.19
2023-03-24T01:18:02.327Z,47.69
2023-03-24T01:21:04.126Z,45.44
2023-03-24T01:24:06.266Z,44.47
2023-03-24T01:27:07.898Z,44.88
2023-03-24T01:30:13.854Z,45.68
2023-03-24T01:33:15.704Z,46.04
2023-03-24T01:36:17.339Z,46.62
2023-03-24T01:39:18.992Z,46.66
2023-03-24T01:42:23.970Z,46.29
2023-03-24T01:45:53.213Z,45.32
2023-03-24T01:48:54.728Z,44.35
2023-03-24T01:52:00.964Z,44.35
2023-03-24T01:55:08.385Z,45.06
2023-03-24T01:58:10.251Z,45.88
2023-03-24T02:01:29.872Z,46.36
2023-03-24T02:04:48.540Z,46.24
2023-03-24T02:08:01.561Z,46.26
2023-03-24T02:11:03.504Z,46.01
2023-03-24T02:14:14.242Z,45.88
2023-03-24T02:18:13.424Z,45.45
2023-03-24T02:21:40.401Z,44.10
2023-03-24T02:25:01.803Z,42.22
2023-03-24T02:28:15.548Z,41.82
2023-03-24T02:31:24.785Z,41.08
2023-03-24T02:34:26.408Z,40.87
2023-03-24T02:37:45.826Z,40.65
2023-03-24T02:40:57.627Z,40.62
2023-03-24T02:44:01.722Z,40.25
2023-03-24T02:47:15.333Z,40.37
2023-03-24T02:50:41.941Z,40.32
2023-03-24T02:54:02.116Z,40.70
2023-03-24T02:57:16.746Z,41.24
2023-03-24T03:00:59.494Z,42.50
2023-03-24T03:04:22.276Z,43.25
2023-03-24T03:07:27.375Z,43.72
2023-03-24T03:10:42.541Z,43.90
2023-03-24T03:14:02.329Z,44.26
2023-03-24T03:17:18.732Z,44.72
2023-03-24T03:20:24.792Z,45.11
2023-03-24T03:23:35.448Z,45.34
2023-03-24T03:26:37.197Z,45.50
2023-03-24T03:29:41.895Z,45.83
2023-03-24T03:32:54.466Z,45.90
2023-03-24T03:36:17.155Z,45.97
2023-03-24T03:39:27.700Z,46.08
2023-03-24T03:42:31.817Z,46.01
2023-03-24T03:45:36.772Z,46.16
2023-03-24T03:48:39.921Z,46.26
2023-03-24T03:51:41.585Z,46.15
2023-03-24T03:54:44.253Z,45.96
2023-03-24T03:57:46.484Z,45.75
2023-03-24T04:00:56.542Z,44.46
2023-03-24T04:04:34.007Z,41.63
2023-03-24T04:08:14.409Z,41.37
2023-03-24T04:11:46.241Z,43.13
2023-03-24T04:15:33.156Z,48.47
2023-03-24T04:19:12.655Z,52.15
2023-03-24T04:22:14.306Z,56.96
2023-03-24T04:25:22.667Z,60.72
2023-03-24T04:28:38.541Z,63.31
2023-03-24T04:31:44.891Z,63.35
2023-03-24T04:34:54.858Z,64.00
2023-03-24T04:38:18.329Z,64.90
2023-03-24T04:41:28.280Z,64.50
2023-03-24T04:44:41.782Z,64.04
2023-03-24T04:48:08.645Z,63.53
2023-03-24T04:51:19.892Z,63.49
2023-03-24T04:54:35.778Z,63.39
2023-03-24T04:57:40.566Z,63.99
2023-03-24T05:00:44.174Z,63.34
2023-03-24T05:03:46.004Z,63.17
2023-03-24T05:06:49.666Z,62.97
2023-03-24T05:09:54.153Z,63.05
2023-03-24T05:12:56.323Z,62.19
2023-03-24T05:16:16.444Z,62.03
2023-03-24T05:19:26.875Z,61.62
2023-03-24T05:22:28.535Z,61.26
2023-03-24T05:25:30.311Z,61.17
2023-03-24T05:28:32.060Z,61.97
2023-03-24T05:31:33.811Z,62.68
2023-03-24T05:34:43.299Z,62.93
2023-03-24T05:37:47.185Z,63.81
2023-03-24T05:40:48.846Z,63.11
2023-03-24T05:43:52.727Z,63.25
2023-03-24T05:46:54.796Z,63.55
2023-03-24T05:49:56.558Z,63.52
2023-03-24T05:52:58.215Z,62.86
2023-03-24T05:56:18.414Z,62.60
2023-03-24T05:59:46.175Z,62.26
2023-03-24T06:03:14.250Z,62.21
2023-03-24T06:06:20.618Z,63.11
2023-03-24T06:09:22.180Z,62.82
2023-03-24T06:12:24.140Z,62.81
2023-03-24T06:15:39.600Z,62.55
2023-03-24T06:18:54.385Z,62.64
2023-03-24T06:22:19.245Z,63.34
2023-03-24T06:25:21.563Z,63.01
2023-03-24T06:28:43.496Z,62.93
2023-03-24T06:31:50.065Z,63.27
2023-03-24T06:34:52.848Z,63.72
2023-03-24T06:38:14.387Z,63.82
2023-03-24T06:41:16.801Z,64.06
2023-03-24T06:44:18.579Z,64.02
2023-03-24T06:47:20.480Z,64.15
2023-03-24T06:50:23.311Z,64.37
2023-03-24T06:53:25.003Z,64.93
2023-03-24T06:56:27.369Z,64.89
2023-03-24T06:59:32.834Z,65.30
2023-03-24T07:02:35.832Z,65.00
2023-03-24T07:05:39.119Z,64.54
2023-03-24T07:08:40.812Z,64.45
2023-03-24T07:11:43.012Z,64.22
2023-03-24T07:14:44.548Z,64.04
2023-03-24T07:17:47.219Z,63.17
2023-03-24T07:21:12.286Z,62.88
2023-03-24T07:24:13.926Z,63.19
2023-03-24T07:27:34.153Z,64.54
2023-03-24T07:30:40.638Z,65.99
2023-03-24T07:33:43.478Z,66.54
2023-03-24T07:36:44.969Z,68.85
2023-03-24T07:39:50.206Z,70.81
2023-03-24T07:42:51.858Z,73.46
2023-03-24T07:46:11.960Z,75.59
2023-03-24T07:49:19.371Z,80.02
2023-03-24T07:52:34.839Z,79.52
2023-03-24T07:55:39.916Z,79.65
2023-03-24T07:58:50.260Z,78.28
2023-03-24T08:02:00.425Z,78.79
2023-03-24T08:05:14.242Z,78.76
2023-03-24T08:08:18.544Z,77.99
2023-03-24T08:11:19.998Z,77.24
2023-03-24T08:14:21.730Z,76.96
2023-03-24T08:17:23.468Z,76.42
2023-03-24T08:20:27.243Z,73.95
2023-03-24T08:23:29.217Z,72.83
2023-03-24T08:26:31.100Z,72.10
2023-03-24T08:29:36.218Z,71.14
2023-03-24T08:32:38.185Z,70.16
2023-03-24T08:35:40.889Z,67.53
2023-03-24T08:38:42.464Z,67.69
2023-03-24T08:41:45.384Z,65.90
2023-03-24T08:44:47.132Z,65.57
2023-03-24T08:47:50.578Z,64.21
2023-03-24T08:50:52.372Z,63.04
2023-03-24T08:53:55.358Z,61.85
2023-03-24T08:56:56.834Z,62.65
2023-03-24T08:59:58.374Z,60.67
2023-03-24T09:03:01.208Z,60.16
2023-03-24T09:06:02.912Z,58.40
2023-03-24T09:09:04.465Z,58.93
2023-03-24T09:12:06.341Z,57.59
2023-03-24T09:15:10.733Z,57.21
2023-03-24T09:18:13.225Z,57.43
2023-03-24T09:21:14.881Z,56.98
2023-03-24T09:24:16.486Z,56.47
2023-03-24T09:27:18.077Z,56.18
2023-03-24T09:30:19.772Z,55.67
2023-03-24T09:33:21.332Z,54.89
2023-03-24T09:36:23.204Z,54.81
2023-03-24T09:39:24.721Z,54.46
2023-03-24T09:42:33.854Z,54.67
2023-03-24T09:45:48.687Z,54.28
2023-03-24T09:48:59.500Z,55.29
2023-03-24T09:52:05.925Z,55.19
2023-03-24T09:55:14.457Z,54.83
2023-03-24T09:58:17.882Z,54.33
2023-03-24T10:01:20.023Z,54.32
2023-03-24T10:04:26.490Z,54.64
2023-03-24T10:07:47.178Z,54.81
2023-03-24T10:10:59.301Z,55.38
2023-03-24T10:14:24.534Z,57.12
2023-03-24T10:17:41.117Z,60.22
2023-03-24T10:20:50.042Z,62.29
2023-03-24T10:24:02.398Z,63.93
2023-03-24T10:27:12.333Z,65.75
2023-03-24T10:30:19.421Z,66.18
2023-03-24T10:33:20.960Z,65.88
2023-03-24T10:36:25.025Z,64.14
2023-03-24T10:39:37.876Z,63.08
2023-03-24T10:42:45.046Z,61.93
2023-03-24T10:45:52.794Z,61.85
2023-03-24T10:49:12.762Z,61.67
2023-03-24T10:52:15.524Z,62.06
2023-03-24T10:55:20.226Z,62.29
2023-03-24T10:58:38.442Z,60.94
2023-03-24T11:01:41.404Z,60.57
2023-03-24T11:05:03.672Z,59.40
2023-03-24T11:08:31.333Z,57.89
2023-03-24T11:11:32.898Z,57.61
2023-03-24T11:14:44.891Z,56.58
2023-03-24T11:17:49.012Z,56.30
2023-03-24T11:20:57.238Z,54.81
2023-03-24T11:24:01.552Z,55.26
2023-03-24T11:27:03.863Z,54.96
2023-03-24T11:30:06.074Z,54.92
2023-03-24T11:33:07.657Z,54.57
2023-03-24T11:36:35.850Z,53.64
2023-03-24T11:39:37.626Z,53.23
2023-03-24T11:42:47.628Z,53.25
2023-03-24T11:46:05.171Z,53.39
2023-03-24T11:49:10.178Z,53.25
2023-03-24T11:52:23.493Z,52.50
2023-03-24T11:55:49.557Z,52.70
2023-03-24T11:59:03.918Z,53.93
2023-03-24T12:02:08.322Z,54.13
2023-03-24T12:05:15.802Z,54.56
2023-03-24T12:08:25.125Z,53.62
2023-03-24T12:11:43.414Z,53.97
2023-03-24T12:15:27.406Z,53.61
2023-03-24T12:18:50.307Z,53.60
2023-03-24T12:22:17.977Z,53.43
2023-03-24T12:25:32.402Z,53.33
2023-03-24T12:28:45.814Z,53.34
2023-03-24T12:32:11.569Z,53.72
2023-03-24T12:35:39.551Z,53.65
2023-03-24T12:38:50.326Z,53.87
2023-03-24T12:42:19.230Z,54.11
2023-03-24T12:45:34.438Z,54.69
2023-03-24T12:49:11.900Z,55.41
2023-03-24T12:52:16.811Z,57.47
2023-03-24T12:55:26.029Z,61.46
2023-03-24T12:58:41.788Z,64.56
2023-03-24T13:01:46.788Z,74.91
2023-03-24T13:04:52.337Z,80.23
2023-03-24T13:07:59.207Z,84.59
2023-03-24T13:11:07.860Z,81.49
2023-03-24T13:14:15.392Z,78.91
2023-03-24T13:17:29.934Z,75.61
2023-03-24T13:20:54.684Z,73.44
2023-03-24T13:24:13.689Z,73.56
2023-03-24T13:27:21.800Z,70.05
2023-03-24T13:30:37.351Z,68.33
2023-03-24T13:33:41.281Z,66.37
2023-03-24T13:36:48.947Z,65.07
2023-03-24T13:39:58.771Z,63.32
2023-03-24T13:43:06.917Z,61.59
2023-03-24T13:46:13.674Z,60.89
2023-03-24T13:49:16.660Z,61.50
2023-03-24T13:52:28.054Z,61.45
2023-03-24T13:55:35.482Z,61.42
2023-03-24T13:58:49.865Z,61.91
2023-03-24T14:02:10.218Z,66.20
2023-03-24T14:05:30.468Z,70.01
2023-03-24T14:08:52.706Z,71.11
2023-03-24T14:12:03.560Z,70.73
2023-03-24T14:15:21.389Z,71.12
2023-03-24T14:18:23.025Z,70.36
2023-03-24T14:21:31.564Z,69.82
2023-03-24T14:24:33.204Z,69.85
2023-03-24T14:27:42.390Z,68.79
2023-03-24T14:31:17.098Z,66.55
2023-03-24T14:34:21.282Z,65.98
2023-03-24T14:37:23.295Z,64.84
2023-03-24T14:40:35.940Z,66.10
2023-03-24T14:43:40.571Z,66.49
2023-03-24T14:46:47.936Z,64.07
2023-03-24T14:49:52.764Z,63.25
2023-03-24T14:53:03.887Z,61.55
2023-03-24T14:56:11.772Z,61.80
2023-03-24T14:59:47.143Z,60.92
2023-03-24T15:02:52.277Z,60.07
2023-03-24T15:05:53.815Z,59.94
2023-03-24T15:09:07.483Z,60.89
2023-03-24T15:12:09.106Z,60.02
2023-03-24T15:15:23.120Z,59.22
2023-03-24T15:18:28.068Z,58.76
2023-03-24T15:21:33.815Z,57.83
2023-03-24T15:24:37.463Z,57.49
2023-03-24T15:27:39.597Z,54.81
2023-03-24T15:30:41.172Z,55.29
2023-03-24T15:33:43.555Z,54.54
2023-03-24T15:36:46.363Z,54.56
2023-03-24T15:39:59.216Z,53.67
2023-03-24T15:43:18.794Z,53.45
2023-03-24T15:51:11.771Z,50.99
2023-03-24T15:54:27.022Z,51.94
2023-03-24T15:57:29.240Z,53.08
2023-03-24T16:00:39.101Z,53.71
2023-03-24T16:03:43.032Z,54.13
2023-03-24T16:06:54.139Z,54.25
2023-03-24T16:10:05.232Z,55.08
2023-03-24T16:13:14.789Z,54.43
2023-03-24T16:16:16.276Z,54.43
2023-03-24T16:19:17.822Z,54.73
2023-03-24T16:22:19.441Z,54.47
2023-03-24T16:25:21.059Z,54.28
2023-03-24T16:28:27.430Z,52.96
2023-03-24T16:31:31.759Z,52.33
2023-03-24T16:34:33.246Z,49.95
2023-03-24T16:37:35.226Z,45.10
2023-03-24T16:40:45.473Z,41.41
2023-03-24T16:43:47.352Z,42.04
2023-03-24T16:46:51.873Z,40.85
2023-03-24T16:49:53.450Z,40.65
2023-03-24T16:52:55.313Z,38.40
2023-03-24T16:55:56.812Z,37.45
2023-03-24T16:58:58.406Z,36.91
2023-03-24T17:02:06.122Z,35.57
2023-03-24T17:05:28.304Z,34.67
2023-03-24T17:08:29.820Z,37.77
2023-03-24T17:11:37.165Z,43.11
2023-03-24T17:14:38.600Z,47.04
2023-03-24T17:17:40.229Z,48.11
2023-03-24T17:20:41.880Z,49.39
2023-03-24T17:23:46.739Z,51.26
2023-03-24T17:26:48.213Z,52.84
2023-03-24T17:29:49.755Z,54.49
2023-03-24T17:32:51.530Z,56.23
2023-03-24T17:35:57.139Z,100.00
